sensor_id;sensor_type;location;lat;lon;timestamp;P1;durP1;ratioP1;P2;durP2;ratioP2
29196;SDS011;62796;42.654;23.316;2023-08-07T00:00:02;1.80;;;1.70;;
29196;SDS011;62796;42.654;23.316;2023-08-07T00:02:29;1.75;;;1.55;;
29196;SDS011;62796;42.654;23.316;2023-08-07T00:04:54;1.55;;;1.45;;
29196;SDS011;62796;42.654;23.316;2023-08-07T00:07:19;1.83;;;1.73;;
29196;SDS011;62796;42.654;23.316;2023-08-07T00:09:45;2.40;;;2.20;;
29196;SDS011;62796;42.654;23.316;2023-08-07T00:12:10;2.55;;;1.90;;
29196;SDS011;62796;42.654;23.316;2023-08-07T00:14:35;2.10;;;1.88;;
29196;SDS011;62796;42.654;23.316;2023-08-07T00:17:01;2.30;;;1.60;;
29196;SDS011;62796;42.654;23.316;2023-08-07T00:19:26;1.90;;;1.80;;
29196;SDS011;62796;42.654;23.316;2023-08-07T00:21:52;2.05;;;1.92;;
29196;SDS011;62796;42.654;23.316;2023-08-07T00:24:17;1.70;;;1.60;;
29196;SDS011;62796;42.654;23.316;2023-08-07T00:26:42;2.17;;;1.98;;
29196;SDS011;62796;42.654;23.316;2023-08-07T00:29:08;3.08;;;1.98;;
29196;SDS011;62796;42.654;23.316;2023-08-07T00:31:33;2.30;;;2.10;;
29196;SDS011;62796;42.654;23.316;2023-08-07T00:33:58;1.75;;;1.65;;
29196;SDS011;62796;42.654;23.316;2023-08-07T00:36:24;2.25;;;2.05;;
29196;SDS011;62796;42.654;23.316;2023-08-07T00:38:50;2.30;;;2.10;;
29196;SDS011;62796;42.654;23.316;2023-08-07T00:41:16;2.28;;;2.08;;
29196;SDS011;62796;42.654;23.316;2023-08-07T00:43:43;2.58;;;2.17;;
29196;SDS011;62796;42.654;23.316;2023-08-07T00:46:08;2.20;;;2.00;;
29196;SDS011;62796;42.654;23.316;2023-08-07T00:48:34;3.53;;;2.00;;
29196;SDS011;62796;42.654;23.316;2023-08-07T00:50:59;2.38;;;2.17;;
29196;SDS011;62796;42.654;23.316;2023-08-07T00:53:25;2.30;;;2.10;;
29196;SDS011;62796;42.654;23.316;2023-08-07T00:55:51;3.33;;;3.03;;
29196;SDS011;62796;42.654;23.316;2023-08-07T00:58:17;2.42;;;2.22;;
29196;SDS011;62796;42.654;23.316;2023-08-07T01:00:43;3.40;;;2.40;;
29196;SDS011;62796;42.654;23.316;2023-08-07T01:03:10;2.00;;;1.80;;
29196;SDS011;62796;42.654;23.316;2023-08-07T01:05:37;2.40;;;2.20;;
29196;SDS011;62796;42.654;23.316;2023-08-07T01:08:03;2.50;;;2.20;;
29196;SDS011;62796;42.654;23.316;2023-08-07T01:16:16;2.33;;;2.13;;
29196;SDS011;62796;42.654;23.316;2023-08-07T01:18:46;2.67;;;2.47;;
29196;SDS011;62796;42.654;23.316;2023-08-07T01:21:18;4.32;;;2.50;;
29196;SDS011;62796;42.654;23.316;2023-08-07T01:23:47;3.20;;;2.67;;
29196;SDS011;62796;42.654;23.316;2023-08-07T01:26:18;2.80;;;2.50;;
29196;SDS011;62796;42.654;23.316;2023-08-07T01:29:06;2.60;;;2.40;;
29196;SDS011;62796;42.654;23.316;2023-08-07T01:31:35;2.97;;;2.67;;
29196;SDS011;62796;42.654;23.316;2023-08-07T01:34:04;4.28;;;2.70;;
29196;SDS011;62796;42.654;23.316;2023-08-07T01:36:33;3.20;;;2.80;;
29196;SDS011;62796;42.654;23.316;2023-08-07T01:39:00;3.00;;;2.80;;
29196;SDS011;62796;42.654;23.316;2023-08-07T01:41:27;3.50;;;2.97;;
29196;SDS011;62796;42.654;23.316;2023-08-07T01:43:54;3.33;;;2.92;;
29196;SDS011;62796;42.654;23.316;2023-08-07T01:46:20;3.28;;;2.90;;
29196;SDS011;62796;42.654;23.316;2023-08-07T01:48:46;3.17;;;2.90;;
29196;SDS011;62796;42.654;23.316;2023-08-07T01:51:11;3.28;;;2.97;;
29196;SDS011;62796;42.654;23.316;2023-08-07T01:53:37;3.70;;;2.80;;
29196;SDS011;62796;42.654;23.316;2023-08-07T01:56:02;6.30;;;3.17;;
29196;SDS011;62796;42.654;23.316;2023-08-07T01:58:27;2.70;;;2.50;;
29196;SDS011;62796;42.654;23.316;2023-08-07T02:00:53;3.03;;;2.45;;
29196;SDS011;62796;42.654;23.316;2023-08-07T02:03:19;3.85;;;2.83;;
29196;SDS011;62796;42.654;23.316;2023-08-07T02:05:45;2.60;;;2.40;;
29196;SDS011;62796;42.654;23.316;2023-08-07T02:08:11;2.80;;;2.45;;
29196;SDS011;62796;42.654;23.316;2023-08-07T02:10:37;5.70;;;2.60;;
29196;SDS011;62796;42.654;23.316;2023-08-07T02:13:02;3.05;;;2.75;;
29196;SDS011;62796;42.654;23.316;2023-08-07T02:15:27;3.22;;;2.53;;
29196;SDS011;62796;42.654;23.316;2023-08-07T02:17:53;2.67;;;2.47;;
29196;SDS011;62796;42.654;23.316;2023-08-07T02:20:18;2.78;;;2.50;;
29196;SDS011;62796;42.654;23.316;2023-08-07T02:22:44;3.80;;;2.72;;
29196;SDS011;62796;42.654;23.316;2023-08-07T02:25:09;3.05;;;2.85;;
29196;SDS011;62796;42.654;23.316;2023-08-07T02:27:35;3.00;;;2.80;;
29196;SDS011;62796;42.654;23.316;2023-08-07T02:30:00;3.55;;;2.60;;
29196;SDS011;62796;42.654;23.316;2023-08-07T02:32:27;3.03;;;2.72;;
29196;SDS011;62796;42.654;23.316;2023-08-07T02:34:53;3.88;;;3.00;;
29196;SDS011;62796;42.654;23.316;2023-08-07T02:37:18;3.85;;;2.90;;
29196;SDS011;62796;42.654;23.316;2023-08-07T02:39:45;3.08;;;2.83;;
29196;SDS011;62796;42.654;23.316;2023-08-07T02:42:11;2.85;;;2.63;;
29196;SDS011;62796;42.654;23.316;2023-08-07T02:44:36;2.75;;;2.55;;
29196;SDS011;62796;42.654;23.316;2023-08-07T02:47:02;3.88;;;2.80;;
29196;SDS011;62796;42.654;23.316;2023-08-07T02:49:28;3.17;;;2.83;;
29196;SDS011;62796;42.654;23.316;2023-08-07T02:51:53;2.90;;;2.70;;
29196;SDS011;62796;42.654;23.316;2023-08-07T02:54:18;3.15;;;2.85;;
29196;SDS011;62796;42.654;23.316;2023-08-07T02:56:44;3.28;;;2.80;;
29196;SDS011;62796;42.654;23.316;2023-08-07T02:59:09;5.10;;;3.33;;
29196;SDS011;62796;42.654;23.316;2023-08-07T03:01:35;2.90;;;2.70;;
29196;SDS011;62796;42.654;23.316;2023-08-07T03:04:00;4.22;;;2.95;;
29196;SDS011;62796;42.654;23.316;2023-08-07T03:06:25;3.38;;;3.05;;
29196;SDS011;62796;42.654;23.316;2023-08-07T03:08:51;4.60;;;3.10;;
29196;SDS011;62796;42.654;23.316;2023-08-07T03:11:16;3.28;;;2.97;;
29196;SDS011;62796;42.654;23.316;2023-08-07T03:13:41;7.65;;;3.67;;
29196;SDS011;62796;42.654;23.316;2023-08-07T03:16:09;5.50;;;3.38;;
29196;SDS011;62796;42.654;23.316;2023-08-07T03:18:34;3.72;;;3.40;;
29196;SDS011;62796;42.654;23.316;2023-08-07T03:21:01;4.68;;;3.47;;
29196;SDS011;62796;42.654;23.316;2023-08-07T03:23:27;3.40;;;3.10;;
29196;SDS011;62796;42.654;23.316;2023-08-07T03:26:03;4.85;;;3.50;;
29196;SDS011;62796;42.654;23.316;2023-08-07T03:28:29;4.88;;;3.47;;
29196;SDS011;62796;42.654;23.316;2023-08-07T03:30:55;4.18;;;3.28;;
29196;SDS011;62796;42.654;23.316;2023-08-07T03:33:20;3.75;;;3.45;;
29196;SDS011;62796;42.654;23.316;2023-08-07T03:35:45;3.97;;;3.60;;
29196;SDS011;62796;42.654;23.316;2023-08-07T03:38:11;3.75;;;3.45;;
29196;SDS011;62796;42.654;23.316;2023-08-07T03:40:36;4.03;;;3.63;;
29196;SDS011;62796;42.654;23.316;2023-08-07T03:43:01;3.55;;;3.25;;
29196;SDS011;62796;42.654;23.316;2023-08-07T03:45:27;4.00;;;3.70;;
29196;SDS011;62796;42.654;23.316;2023-08-07T03:47:52;4.45;;;3.58;;
29196;SDS011;62796;42.654;23.316;2023-08-07T03:50:18;4.60;;;4.10;;
29196;SDS011;62796;42.654;23.316;2023-08-07T03:52:43;5.45;;;4.20;;
29196;SDS011;62796;42.654;23.316;2023-08-07T03:55:08;4.15;;;3.75;;
29196;SDS011;62796;42.654;23.316;2023-08-07T03:57:34;4.30;;;3.78;;
29196;SDS011;62796;42.654;23.316;2023-08-07T03:59:59;4.03;;;3.63;;
29196;SDS011;62796;42.654;23.316;2023-08-07T04:02:25;5.78;;;3.70;;
29196;SDS011;62796;42.654;23.316;2023-08-07T04:04:50;4.25;;;3.35;;
29196;SDS011;62796;42.654;23.316;2023-08-07T04:07:15;4.07;;;3.63;;
29196;SDS011;62796;42.654;23.316;2023-08-07T04:09:41;3.45;;;3.15;;
29196;SDS011;62796;42.654;23.316;2023-08-07T04:12:06;4.97;;;3.42;;
29196;SDS011;62796;42.654;23.316;2023-08-07T04:14:32;3.38;;;3.08;;
29196;SDS011;62796;42.654;23.316;2023-08-07T04:16:57;3.60;;;3.30;;
29196;SDS011;62796;42.654;23.316;2023-08-07T04:19:23;4.85;;;3.08;;
29196;SDS011;62796;42.654;23.316;2023-08-07T04:21:48;3.65;;;3.35;;
29196;SDS011;62796;42.654;23.316;2023-08-07T04:24:14;4.78;;;3.47;;
29196;SDS011;62796;42.654;23.316;2023-08-07T04:26:39;5.10;;;4.43;;
29196;SDS011;62796;42.654;23.316;2023-08-07T04:29:05;6.15;;;3.25;;
29196;SDS011;62796;42.654;23.316;2023-08-07T04:31:30;4.47;;;3.22;;
29196;SDS011;62796;42.654;23.316;2023-08-07T04:33:56;4.40;;;3.63;;
29196;SDS011;62796;42.654;23.316;2023-08-07T04:36:23;5.07;;;3.78;;
29196;SDS011;62796;42.654;23.316;2023-08-07T04:38:49;4.65;;;3.88;;
29196;SDS011;62796;42.654;23.316;2023-08-07T04:41:15;4.00;;;3.60;;
29196;SDS011;62796;42.654;23.316;2023-08-07T04:43:40;8.55;;;3.60;;
29196;SDS011;62796;42.654;23.316;2023-08-07T04:46:07;7.20;;;4.30;;
29196;SDS011;62796;42.654;23.316;2023-08-07T04:48:34;4.15;;;3.75;;
29196;SDS011;62796;42.654;23.316;2023-08-07T04:51:00;7.30;;;3.85;;
29196;SDS011;62796;42.654;23.316;2023-08-07T04:53:25;8.05;;;4.30;;
29196;SDS011;62796;42.654;23.316;2023-08-07T04:55:50;6.50;;;4.38;;
29196;SDS011;62796;42.654;23.316;2023-08-07T04:58:16;7.05;;;4.40;;
29196;SDS011;62796;42.654;23.316;2023-08-07T05:00:41;7.75;;;4.40;;
29196;SDS011;62796;42.654;23.316;2023-08-07T05:03:07;5.55;;;4.53;;
29196;SDS011;62796;42.654;23.316;2023-08-07T05:05:32;5.95;;;4.70;;
29196;SDS011;62796;42.654;23.316;2023-08-07T05:07:57;8.98;;;5.07;;
29196;SDS011;62796;42.654;23.316;2023-08-07T05:10:23;8.55;;;3.47;;
29196;SDS011;62796;42.654;23.316;2023-08-07T05:12:48;7.15;;;3.97;;
29196;SDS011;62796;42.654;23.316;2023-08-07T05:15:20;7.38;;;4.55;;
29196;SDS011;62796;42.654;23.316;2023-08-07T05:17:45;9.65;;;5.03;;
29196;SDS011;62796;42.654;23.316;2023-08-07T05:20:10;4.20;;;3.80;;
29196;SDS011;62796;42.654;23.316;2023-08-07T05:22:36;12.50;;;5.05;;
29196;SDS011;62796;42.654;23.316;2023-08-07T05:25:03;6.28;;;3.78;;
29196;SDS011;62796;42.654;23.316;2023-08-07T05:27:28;5.75;;;3.80;;
29196;SDS011;62796;42.654;23.316;2023-08-07T05:29:54;7.63;;;4.30;;
29196;SDS011;62796;42.654;23.316;2023-08-07T05:32:19;10.80;;;4.45;;
29196;SDS011;62796;42.654;23.316;2023-08-07T05:34:44;5.28;;;3.45;;
29196;SDS011;62796;42.654;23.316;2023-08-07T05:37:10;4.22;;;3.80;;
29196;SDS011;62796;42.654;23.316;2023-08-07T05:39:35;5.63;;;3.50;;
29196;SDS011;62796;42.654;23.316;2023-08-07T05:42:01;6.53;;;4.47;;
29196;SDS011;62796;42.654;23.316;2023-08-07T05:44:26;6.72;;;3.88;;
29196;SDS011;62796;42.654;23.316;2023-08-07T05:46:52;11.25;;;3.65;;
29196;SDS011;62796;42.654;23.316;2023-08-07T05:49:18;4.95;;;3.78;;
29196;SDS011;62796;42.654;23.316;2023-08-07T05:51:44;9.23;;;3.58;;
29196;SDS011;62796;42.654;23.316;2023-08-07T05:54:09;14.50;;;5.00;;
29196;SDS011;62796;42.654;23.316;2023-08-07T05:56:35;6.70;;;3.78;;
29196;SDS011;62796;42.654;23.316;2023-08-07T05:59:02;8.07;;;3.03;;
29196;SDS011;62796;42.654;23.316;2023-08-07T06:01:27;3.70;;;3.10;;
29196;SDS011;62796;42.654;23.316;2023-08-07T06:03:56;11.25;;;4.32;;
29196;SDS011;62796;42.654;23.316;2023-08-07T06:06:22;14.27;;;4.25;;
29196;SDS011;62796;42.654;23.316;2023-08-07T06:08:48;11.32;;;3.70;;
29196;SDS011;62796;42.654;23.316;2023-08-07T06:11:13;22.55;;;5.25;;
29196;SDS011;62796;42.654;23.316;2023-08-07T06:13:39;7.65;;;3.38;;
29196;SDS011;62796;42.654;23.316;2023-08-07T06:16:05;12.23;;;4.00;;
29196;SDS011;62796;42.654;23.316;2023-08-07T06:18:31;9.82;;;4.85;;
29196;SDS011;62796;42.654;23.316;2023-08-07T06:20:56;7.85;;;3.83;;
29196;SDS011;62796;42.654;23.316;2023-08-07T06:23:21;4.93;;;3.40;;
29196;SDS011;62796;42.654;23.316;2023-08-07T06:25:47;6.07;;;3.20;;
29196;SDS011;62796;42.654;23.316;2023-08-07T06:28:12;9.40;;;4.07;;
29196;SDS011;62796;42.654;23.316;2023-08-07T06:30:38;11.13;;;3.70;;
29196;SDS011;62796;42.654;23.316;2023-08-07T06:33:03;10.10;;;4.22;;
29196;SDS011;62796;42.654;23.316;2023-08-07T06:35:29;8.65;;;4.07;;
29196;SDS011;62796;42.654;23.316;2023-08-07T06:37:54;6.97;;;3.33;;
29196;SDS011;62796;42.654;23.316;2023-08-07T06:40:20;8.35;;;2.50;;
29196;SDS011;62796;42.654;23.316;2023-08-07T06:42:45;3.15;;;1.77;;
29196;SDS011;62796;42.654;23.316;2023-08-07T06:45:10;5.18;;;1.88;;
29196;SDS011;62796;42.654;23.316;2023-08-07T06:47:36;3.00;;;1.20;;
29196;SDS011;62796;42.654;23.316;2023-08-07T06:50:01;2.65;;;1.25;;
29196;SDS011;62796;42.654;23.316;2023-08-07T06:52:27;2.15;;;1.63;;
29196;SDS011;62796;42.654;23.316;2023-08-07T06:54:52;3.80;;;1.30;;
29196;SDS011;62796;42.654;23.316;2023-08-07T06:57:18;3.63;;;1.58;;
29196;SDS011;62796;42.654;23.316;2023-08-07T06:59:43;1.70;;;1.60;;
29196;SDS011;62796;42.654;23.316;2023-08-07T07:02:09;4.70;;;2.13;;
29196;SDS011;62796;42.654;23.316;2023-08-07T07:04:34;20.77;;;3.80;;
29196;SDS011;62796;42.654;23.316;2023-08-07T07:07:01;3.85;;;1.75;;
29196;SDS011;62796;42.654;23.316;2023-08-07T07:09:27;2.97;;;2.17;;
29196;SDS011;62796;42.654;23.316;2023-08-07T07:11:53;4.32;;;1.50;;
29196;SDS011;62796;42.654;23.316;2023-08-07T07:14:20;2.78;;;1.75;;
29196;SDS011;62796;42.654;23.316;2023-08-07T07:16:45;2.28;;;1.50;;
29196;SDS011;62796;42.654;23.316;2023-08-07T07:19:10;2.17;;;1.67;;
29196;SDS011;62796;42.654;23.316;2023-08-07T07:21:36;2.33;;;2.10;;
29196;SDS011;62796;42.654;23.316;2023-08-07T07:24:02;3.58;;;1.90;;
29196;SDS011;62796;42.654;23.316;2023-08-07T07:26:27;6.18;;;2.45;;
29196;SDS011;62796;42.654;23.316;2023-08-07T07:28:53;5.88;;;2.70;;
29196;SDS011;62796;42.654;23.316;2023-08-07T07:31:19;4.65;;;2.17;;
29196;SDS011;62796;42.654;23.316;2023-08-07T07:33:44;5.45;;;2.03;;
29196;SDS011;62796;42.654;23.316;2023-08-07T07:36:16;5.32;;;2.47;;
29196;SDS011;62796;42.654;23.316;2023-08-07T07:38:42;4.70;;;1.85;;
29196;SDS011;62796;42.654;23.316;2023-08-07T07:41:08;3.85;;;2.05;;
29196;SDS011;62796;42.654;23.316;2023-08-07T07:43:36;5.35;;;2.17;;
29196;SDS011;62796;42.654;23.316;2023-08-07T07:46:01;2.83;;;1.60;;
29196;SDS011;62796;42.654;23.316;2023-08-07T07:48:27;3.35;;;2.45;;
29196;SDS011;62796;42.654;23.316;2023-08-07T07:50:57;3.97;;;2.33;;
29196;SDS011;62796;42.654;23.316;2023-08-07T07:53:24;2.50;;;2.03;;
29196;SDS011;62796;42.654;23.316;2023-08-07T07:55:49;2.05;;;1.75;;
29196;SDS011;62796;42.654;23.316;2023-08-07T07:58:15;2.75;;;1.73;;
29196;SDS011;62796;42.654;23.316;2023-08-07T08:00:40;4.70;;;2.35;;
29196;SDS011;62796;42.654;23.316;2023-08-07T08:03:05;2.70;;;2.00;;
29196;SDS011;62796;42.654;23.316;2023-08-07T08:05:31;4.30;;;2.25;;
29196;SDS011;62796;42.654;23.316;2023-08-07T08:07:57;4.47;;;2.00;;
29196;SDS011;62796;42.654;23.316;2023-08-07T08:10:22;4.18;;;2.85;;
29196;SDS011;62796;42.654;23.316;2023-08-07T08:12:47;6.45;;;1.73;;
29196;SDS011;62796;42.654;23.316;2023-08-07T08:15:13;2.33;;;1.90;;
29196;SDS011;62796;42.654;23.316;2023-08-07T08:17:38;4.88;;;1.90;;
29196;SDS011;62796;42.654;23.316;2023-08-07T08:20:04;3.80;;;2.00;;
29196;SDS011;62796;42.654;23.316;2023-08-07T08:22:30;2.72;;;2.08;;
29196;SDS011;62796;42.654;23.316;2023-08-07T08:24:56;6.80;;;1.73;;
29196;SDS011;62796;42.654;23.316;2023-08-07T08:27:21;1.70;;;1.50;;
29196;SDS011;62796;42.654;23.316;2023-08-07T08:29:47;3.55;;;2.00;;
29196;SDS011;62796;42.654;23.316;2023-08-07T08:32:13;6.32;;;1.83;;
29196;SDS011;62796;42.654;23.316;2023-08-07T08:34:38;2.00;;;1.40;;
29196;SDS011;62796;42.654;23.316;2023-08-07T08:37:04;3.85;;;2.00;;
29196;SDS011;62796;42.654;23.316;2023-08-07T08:39:33;2.00;;;1.90;;
29196;SDS011;62796;42.654;23.316;2023-08-07T08:41:58;7.53;;;1.80;;
29196;SDS011;62796;42.654;23.316;2023-08-07T08:44:25;1.80;;;1.70;;
29196;SDS011;62796;42.654;23.316;2023-08-07T08:46:54;2.45;;;2.05;;
29196;SDS011;62796;42.654;23.316;2023-08-07T08:49:26;3.00;;;1.60;;
29196;SDS011;62796;42.654;23.316;2023-08-07T08:51:56;5.53;;;1.50;;
29196;SDS011;62796;42.654;23.316;2023-08-07T08:54:21;2.90;;;1.60;;
29196;SDS011;62796;42.654;23.316;2023-08-07T08:56:47;3.25;;;1.77;;
29196;SDS011;62796;42.654;23.316;2023-08-07T08:59:13;4.95;;;1.85;;
29196;SDS011;62796;42.654;23.316;2023-08-07T09:01:38;1.90;;;1.63;;
29196;SDS011;62796;42.654;23.316;2023-08-07T09:04:04;4.80;;;1.52;;
29196;SDS011;62796;42.654;23.316;2023-08-07T09:06:31;2.95;;;1.83;;
29196;SDS011;62796;42.654;23.316;2023-08-07T09:08:57;2.15;;;1.95;;
29196;SDS011;62796;42.654;23.316;2023-08-07T09:11:24;2.20;;;1.70;;
29196;SDS011;62796;42.654;23.316;2023-08-07T09:13:50;2.40;;;1.48;;
29196;SDS011;62796;42.654;23.316;2023-08-07T09:16:18;1.60;;;1.45;;
29196;SDS011;62796;42.654;23.316;2023-08-07T09:18:43;2.17;;;1.70;;
29196;SDS011;62796;42.654;23.316;2023-08-07T09:21:09;5.82;;;2.33;;
29196;SDS011;62796;42.654;23.316;2023-08-07T09:23:34;1.85;;;1.52;;
29196;SDS011;62796;42.654;23.316;2023-08-07T09:26:00;1.63;;;1.40;;
29196;SDS011;62796;42.654;23.316;2023-08-07T09:28:27;1.52;;;1.30;;
29196;SDS011;62796;42.654;23.316;2023-08-07T09:30:54;5.00;;;2.10;;
29196;SDS011;62796;42.654;23.316;2023-08-07T09:33:24;1.60;;;1.45;;
29196;SDS011;62796;42.654;23.316;2023-08-07T09:35:56;1.70;;;1.60;;
29196;SDS011;62796;42.654;23.316;2023-08-07T09:38:23;2.70;;;1.83;;
29196;SDS011;62796;42.654;23.316;2023-08-07T09:40:49;5.97;;;2.00;;
29196;SDS011;62796;42.654;23.316;2023-08-07T09:43:20;1.63;;;1.42;;
29196;SDS011;62796;42.654;23.316;2023-08-07T09:45:47;4.65;;;1.67;;
29196;SDS011;62796;42.654;23.316;2023-08-07T09:48:15;6.32;;;1.90;;
29196;SDS011;62796;42.654;23.316;2023-08-07T09:50:47;3.80;;;1.95;;
29196;SDS011;62796;42.654;23.316;2023-08-07T09:53:13;20.73;;;2.70;;
29196;SDS011;62796;42.654;23.316;2023-08-07T09:55:38;5.15;;;1.80;;
29196;SDS011;62796;42.654;23.316;2023-08-07T09:58:03;1.92;;;1.55;;
29196;SDS011;62796;42.654;23.316;2023-08-07T10:00:36;4.32;;;1.52;;
29196;SDS011;62796;42.654;23.316;2023-08-07T10:03:01;5.72;;;1.80;;
29196;SDS011;62796;42.654;23.316;2023-08-07T10:05:27;7.53;;;2.20;;
29196;SDS011;62796;42.654;23.316;2023-08-07T10:07:52;3.38;;;1.55;;
29196;SDS011;62796;42.654;23.316;2023-08-07T10:10:20;2.40;;;1.85;;
29196;SDS011;62796;42.654;23.316;2023-08-07T10:12:45;3.85;;;1.85;;
29196;SDS011;62796;42.654;23.316;2023-08-07T10:15:12;2.67;;;1.63;;
29196;SDS011;62796;42.654;23.316;2023-08-07T10:17:39;2.78;;;1.80;;
29196;SDS011;62796;42.654;23.316;2023-08-07T10:20:06;2.08;;;1.38;;
29196;SDS011;62796;42.654;23.316;2023-08-07T10:22:33;1.70;;;1.50;;
29196;SDS011;62796;42.654;23.316;2023-08-07T10:25:03;6.70;;;1.65;;
29196;SDS011;62796;42.654;23.316;2023-08-07T10:27:29;4.22;;;1.60;;
29196;SDS011;62796;42.654;23.316;2023-08-07T10:29:58;2.85;;;1.80;;
29196;SDS011;62796;42.654;23.316;2023-08-07T10:32:26;10.65;;;2.33;;
29196;SDS011;62796;42.654;23.316;2023-08-07T10:34:52;2.03;;;1.50;;
29196;SDS011;62796;42.654;23.316;2023-08-07T10:40:09;2.00;;;1.60;;
29196;SDS011;62796;42.654;23.316;2023-08-07T10:43:18;5.28;;;1.60;;
29196;SDS011;62796;42.654;23.316;2023-08-07T10:45:45;4.20;;;1.88;;
29196;SDS011;62796;42.654;23.316;2023-08-07T10:48:11;4.55;;;1.88;;
29196;SDS011;62796;42.654;23.316;2023-08-07T10:55:59;2.63;;;1.92;;
29196;SDS011;62796;42.654;23.316;2023-08-07T10:58:31;11.63;;;2.90;;
29196;SDS011;62796;42.654;23.316;2023-08-07T11:01:17;2.78;;;1.80;;
29196;SDS011;62796;42.654;23.316;2023-08-07T11:03:56;5.00;;;1.70;;
29196;SDS011;62796;42.654;23.316;2023-08-07T11:06:27;1.52;;;1.35;;
29196;SDS011;62796;42.654;23.316;2023-08-07T11:08:56;4.43;;;1.60;;
29196;SDS011;62796;42.654;23.316;2023-08-07T11:11:22;2.80;;;1.63;;
29196;SDS011;62796;42.654;23.316;2023-08-07T11:13:48;5.13;;;1.98;;
29196;SDS011;62796;42.654;23.316;2023-08-07T11:16:13;7.20;;;1.40;;
29196;SDS011;62796;42.654;23.316;2023-08-07T11:18:39;5.75;;;1.70;;
29196;SDS011;62796;42.654;23.316;2023-08-07T11:21:06;6.32;;;1.80;;
29196;SDS011;62796;42.654;23.316;2023-08-07T11:23:32;5.43;;;1.80;;
29196;SDS011;62796;42.654;23.316;2023-08-07T11:25:58;5.13;;;1.73;;
29196;SDS011;62796;42.654;23.316;2023-08-07T11:28:23;8.35;;;2.35;;
29196;SDS011;62796;42.654;23.316;2023-08-07T11:30:53;2.83;;;1.80;;
29196;SDS011;62796;42.654;23.316;2023-08-07T11:33:20;2.15;;;1.70;;
29196;SDS011;62796;42.654;23.316;2023-08-07T11:35:46;3.97;;;2.13;;
29196;SDS011;62796;42.654;23.316;2023-08-07T11:38:13;17.50;;;2.97;;
29196;SDS011;62796;42.654;23.316;2023-08-07T11:40:53;3.78;;;2.00;;
29196;SDS011;62796;42.654;23.316;2023-08-07T11:43:18;2.35;;;1.80;;
29196;SDS011;62796;42.654;23.316;2023-08-07T11:45:44;7.35;;;1.70;;
29196;SDS011;62796;42.654;23.316;2023-08-07T11:48:09;5.47;;;1.83;;
29196;SDS011;62796;42.654;23.316;2023-08-07T11:50:35;2.15;;;1.40;;
29196;SDS011;62796;42.654;23.316;2023-08-07T11:53:00;13.38;;;1.95;;
29196;SDS011;62796;42.654;23.316;2023-08-07T11:55:27;2.08;;;1.70;;
29196;SDS011;62796;42.654;23.316;2023-08-07T11:57:53;4.28;;;1.95;;
29196;SDS011;62796;42.654;23.316;2023-08-07T12:00:19;6.20;;;1.60;;
29196;SDS011;62796;42.654;23.316;2023-08-07T12:02:45;5.07;;;1.80;;
29196;SDS011;62796;42.654;23.316;2023-08-07T12:05:11;7.50;;;2.20;;
29196;SDS011;62796;42.654;23.316;2023-08-07T12:07:37;12.38;;;4.43;;
29196;SDS011;62796;42.654;23.316;2023-08-07T12:10:06;3.95;;;2.10;;
29196;SDS011;62796;42.654;23.316;2023-08-07T12:12:33;3.63;;;1.90;;
29196;SDS011;62796;42.654;23.316;2023-08-07T12:14:59;5.60;;;2.15;;
29196;SDS011;62796;42.654;23.316;2023-08-07T12:17:25;5.43;;;2.47;;
29196;SDS011;62796;42.654;23.316;2023-08-07T12:19:50;2.42;;;1.60;;
29196;SDS011;62796;42.654;23.316;2023-08-07T12:22:18;4.50;;;1.85;;
29196;SDS011;62796;42.654;23.316;2023-08-07T12:24:45;1.73;;;1.63;;
29196;SDS011;62796;42.654;23.316;2023-08-07T12:27:10;4.45;;;1.80;;
29196;SDS011;62796;42.654;23.316;2023-08-07T12:29:36;3.00;;;1.83;;
29196;SDS011;62796;42.654;23.316;2023-08-07T12:32:01;4.72;;;1.90;;
29196;SDS011;62796;42.654;23.316;2023-08-07T12:34:27;3.35;;;1.60;;
29196;SDS011;62796;42.654;23.316;2023-08-07T12:36:53;3.17;;;1.90;;
29196;SDS011;62796;42.654;23.316;2023-08-07T12:39:19;7.10;;;2.28;;
29196;SDS011;62796;42.654;23.316;2023-08-07T12:41:45;2.55;;;1.73;;
29196;SDS011;62796;42.654;23.316;2023-08-07T12:44:13;5.68;;;1.70;;
29196;SDS011;62796;42.654;23.316;2023-08-07T12:46:38;1.80;;;1.60;;
29196;SDS011;62796;42.654;23.316;2023-08-07T12:49:05;3.40;;;1.52;;
29196;SDS011;62796;42.654;23.316;2023-08-07T12:51:33;3.88;;;1.70;;
29196;SDS011;62796;42.654;23.316;2023-08-07T12:53:59;2.58;;;1.67;;
29196;SDS011;62796;42.654;23.316;2023-08-07T12:56:24;3.10;;;1.60;;
29196;SDS011;62796;42.654;23.316;2023-08-07T12:58:49;6.82;;;2.00;;
29196;SDS011;62796;42.654;23.316;2023-08-07T13:01:15;6.68;;;3.65;;
29196;SDS011;62796;42.654;23.316;2023-08-07T13:03:40;6.78;;;3.45;;
29196;SDS011;62796;42.654;23.316;2023-08-07T13:06:06;5.55;;;2.30;;
29196;SDS011;62796;42.654;23.316;2023-08-07T13:08:33;5.85;;;1.98;;
29196;SDS011;62796;42.654;23.316;2023-08-07T13:11:00;1.80;;;1.58;;
29196;SDS011;62796;42.654;23.316;2023-08-07T13:13:28;6.90;;;1.92;;
29196;SDS011;62796;42.654;23.316;2023-08-07T13:15:53;2.00;;;1.80;;
29196;SDS011;62796;42.654;23.316;2023-08-07T13:18:19;7.82;;;2.35;;
29196;SDS011;62796;42.654;23.316;2023-08-07T13:20:44;4.72;;;2.13;;
29196;SDS011;62796;42.654;23.316;2023-08-07T13:23:10;6.05;;;2.38;;
29196;SDS011;62796;42.654;23.316;2023-08-07T13:25:36;4.95;;;2.20;;
29196;SDS011;62796;42.654;23.316;2023-08-07T13:28:02;4.80;;;2.30;;
29196;SDS011;62796;42.654;23.316;2023-08-07T13:30:31;3.08;;;1.90;;
29196;SDS011;62796;42.654;23.316;2023-08-07T13:32:59;4.50;;;2.30;;
29196;SDS011;62796;42.654;23.316;2023-08-07T13:35:25;9.07;;;2.05;;
29196;SDS011;62796;42.654;23.316;2023-08-07T13:37:50;8.57;;;1.85;;
29196;SDS011;62796;42.654;23.316;2023-08-07T13:40:16;5.93;;;2.05;;
29196;SDS011;62796;42.654;23.316;2023-08-07T13:42:41;3.42;;;2.08;;
29196;SDS011;62796;42.654;23.316;2023-08-07T13:45:07;3.63;;;2.00;;
29196;SDS011;62796;42.654;23.316;2023-08-07T13:47:34;6.00;;;2.10;;
29196;SDS011;62796;42.654;23.316;2023-08-07T13:50:00;8.90;;;1.88;;
29196;SDS011;62796;42.654;23.316;2023-08-07T13:52:27;4.32;;;1.90;;
29196;SDS011;62796;42.654;23.316;2023-08-07T13:54:52;6.82;;;2.53;;
29196;SDS011;62796;42.654;23.316;2023-08-07T13:57:17;3.80;;;2.92;;
29196;SDS011;62796;42.654;23.316;2023-08-07T13:59:43;4.85;;;2.20;;
29196;SDS011;62796;42.654;23.316;2023-08-07T14:02:08;4.70;;;1.80;;
29196;SDS011;62796;42.654;23.316;2023-08-07T14:04:34;4.95;;;1.70;;
29196;SDS011;62796;42.654;23.316;2023-08-07T14:06:59;3.67;;;1.60;;
29196;SDS011;62796;42.654;23.316;2023-08-07T14:09:25;4.68;;;2.22;;
29196;SDS011;62796;42.654;23.316;2023-08-07T14:11:50;3.80;;;1.88;;
29196;SDS011;62796;42.654;23.316;2023-08-07T14:14:16;4.85;;;1.95;;
29196;SDS011;62796;42.654;23.316;2023-08-07T14:16:42;4.75;;;2.20;;
29196;SDS011;62796;42.654;23.316;2023-08-07T14:19:08;7.20;;;2.25;;
29196;SDS011;62796;42.654;23.316;2023-08-07T14:21:33;6.43;;;2.05;;
29196;SDS011;62796;42.654;23.316;2023-08-07T14:23:59;5.28;;;1.83;;
29196;SDS011;62796;42.654;23.316;2023-08-07T14:26:25;2.33;;;1.90;;
29196;SDS011;62796;42.654;23.316;2023-08-07T14:28:51;5.82;;;2.28;;
29196;SDS011;62796;42.654;23.316;2023-08-07T14:31:16;2.83;;;1.95;;
29196;SDS011;62796;42.654;23.316;2023-08-07T14:33:41;2.70;;;1.85;;
29196;SDS011;62796;42.654;23.316;2023-08-07T14:36:07;3.05;;;1.95;;
29196;SDS011;62796;42.654;23.316;2023-08-07T14:38:32;3.45;;;1.90;;
29196;SDS011;62796;42.654;23.316;2023-08-07T14:40:58;3.90;;;1.90;;